Skip Navigation Links Skip Navigation Links

Current Weather

Smith Reynolds, Winston Salem, N.C.

For information only: do not use for flight planning or navigation.
Latest weather
Observation time Tuesday, June 25, 2019 1:54 PM EDT
Local time Tuesday, June 25, 2019 2:10 PM EDT
Flight conditions Visual Meteorological Conditions
Winds
Wind direction Northwest (320°)
Wind speed 7 mph
Visibility 10 mi.
Sky condition
Ceiling unlimited
Sky clear
Temperature 84°F
Dewpoint 62°F
Altimeter 30.02 in.Hg
Pressure change last 3 hours0.00 in.Hg
Pressure rising, then falling
Derived measurements
Relative humidity 48%
Heat index 85°F
Density altitude 2715 ft.
Sea-level pressure 29.98 in.Hg
Climate data
Temperature minimum, last 6 hours 73°F
Temperature maximum, last 6 hours 84°F
Remarks
Automated weather observing station with precipitation discriminator.
METAR KINT 251754Z 32006KT 10SM CLR 29/17 A3002 RMK AO2 SLP154 T02890167 10289 20228 50000

Settings

Location code

InnerDrive.Weather 4.0.6770.0 Release CLR 4.0.30319.42000
Copyright ©2018 Inner Drive Technology. All rights reserved. Portions Copyright ©1986-2018 David Braverman.

Find weather

Site navigation


Skip Navigation Links

Place info

Page info

PayPal - The safer, easier way to pay online!

Return home.

Copyright ©2019 Inner Drive Technology. Purveyors of fine, hand-crafted computer software. Page printed 2019-06-25T18:10:17 UTC.